Time;durP1;ratioP1;P1;durP2;ratioP2;P2;SDS_P1;SDS_P2;PMS_P1;PMS_P2;Temp;Humidity;BMP_temperature;BMP_pressure;BME280_temperature;BME280_humidity;BME280_pressure;Samples;Min_cycle;Max_cycle;Signal;HPM_P1;HPM_P2
2024/01/16 00:02:03;;;;;;;7.60;1.65;;;;;;;;;;4950462;28;20422;-81
2024/01/16 00:04:30;;;;;;;4.65;1.55;;;;;;;;;;4947934;28;20031;-80
2024/01/16 00:06:58;;;;;;;6.60;2.05;;;;;;;;;;4963429;28;20046;-80
2024/01/16 00:09:24;;;;;;;7.18;1.85;;;;;;;;;;4963259;28;20038;-79
2024/01/16 00:11:49;;;;;;;8.82;2.38;;;;;;;;;;4946912;28;20291;-80
2024/01/16 00:14:15;;;;;;;5.50;1.58;;;;;;;;;;4946745;28;20078;-80
2024/01/16 00:16:48;;;;;;;7.28;1.70;;;;;;;;;;4963635;28;20039;-81
2024/01/16 00:19:14;;;;;;;8.77;1.70;;;;;;;;;;4947954;28;20031;-80
2024/01/16 00:21:43;;;;;;;7.00;1.63;;;;;;;;;;4949118;29;20045;-81
2024/01/16 00:24:11;;;;;;;6.68;1.60;;;;;;;;;;4941661;29;20046;-81
2024/01/16 00:26:37;;;;;;;3.90;1.73;;;;;;;;;;4940520;29;20046;-81
2024/01/16 00:29:03;;;;;;;6.68;2.45;;;;;;;;;;4938941;29;20038;-80
2024/01/16 00:31:29;;;;;;;4.97;1.60;;;;;;;;;;4934021;29;20035;-82
2024/01/16 00:33:55;;;;;;;8.35;1.77;;;;;;;;;;4951248;29;20038;-80
2024/01/16 00:36:21;;;;;;;4.18;1.98;;;;;;;;;;4935596;29;20047;-81
2024/01/16 00:38:47;;;;;;;4.15;1.75;;;;;;;;;;4923565;28;20061;-81
2024/01/16 00:41:26;;;;;;;4.97;1.80;;;;;;;;;;4962303;28;20046;-79
2024/01/16 00:43:52;;;;;;;7.07;1.90;;;;;;;;;;4960166;28;20417;-81
2024/01/16 00:46:22;;;;;;;9.30;2.28;;;;;;;;;;4977879;28;20039;-81
2024/01/16 00:48:48;;;;;;;9.70;1.90;;;;;;;;;;4962204;28;20046;-81
2024/01/16 00:51:13;;;;;;;8.10;1.70;;;;;;;;;;4963374;28;20023;-81
2024/01/16 00:53:40;;;;;;;3.70;1.70;;;;;;;;;;4963433;28;20026;-80
2024/01/16 00:56:08;;;;;;;4.82;2.00;;;;;;;;;;4964388;28;20050;-81
2024/01/16 00:58:37;;;;;;;8.60;2.00;;;;;;;;;;4979810;28;20063;-82
2024/01/16 01:01:04;;;;;;;9.38;1.85;;;;;;;;;;4963404;28;20011;-81
2024/01/16 01:03:33;;;;;;;8.25;1.88;;;;;;;;;;4959019;28;20278;-80
2024/01/16 01:06:01;;;;;;;5.20;1.70;;;;;;;;;;4955819;23;20085;-78
2024/01/16 01:08:28;;;;;;;9.60;2.05;;;;;;;;;;4871419;29;20464;-79
2024/01/16 01:10:54;;;;;;;5.70;1.70;;;;;;;;;;4920042;29;20071;-78
2024/01/16 01:13:20;;;;;;;9.15;2.13;;;;;;;;;;4888501;29;20047;-78
2024/01/16 01:15:47;;;;;;;5.90;1.50;;;;;;;;;;4905300;29;20035;-79
2024/01/16 01:18:13;;;;;;;8.18;1.75;;;;;;;;;;4888755;29;20131;-78
2024/01/16 01:20:38;;;;;;;6.03;2.05;;;;;;;;;;4888667;29;20040;-78
2024/01/16 01:23:04;;;;;;;8.82;2.50;;;;;;;;;;4857355;29;20052;-78
2024/01/16 01:25:32;;;;;;;5.43;1.90;;;;;;;;;;4888653;29;20436;-78
2024/01/16 01:27:59;;;;;;;4.10;2.13;;;;;;;;;;4872382;29;20556;-78
2024/01/16 01:30:26;;;;;;;4.65;1.70;;;;;;;;;;4887426;29;20507;-78
2024/01/16 01:32:51;;;;;;;5.43;1.88;;;;;;;;;;4887229;29;20050;-78
2024/01/16 01:35:21;;;;;;;9.27;1.90;;;;;;;;;;4887713;29;20099;-79
2024/01/16 01:37:47;;;;;;;6.75;1.63;;;;;;;;;;4872632;29;20248;-79
2024/01/16 01:40:17;;;;;;;4.20;1.27;;;;;;;;;;4886260;29;20028;-79
2024/01/16 01:42:49;;;;;;;5.68;1.10;;;;;;;;;;4887409;29;20060;-78
2024/01/16 01:45:15;;;;;;;3.95;1.05;;;;;;;;;;4872223;29;20031;-78
2024/01/16 01:47:47;;;;;;;3.85;1.05;;;;;;;;;;4872677;29;20440;-80
2024/01/16 01:50:14;;;;;;;7.05;1.10;;;;;;;;;;4905328;29;20063;-78
2024/01/16 01:52:40;;;;;;;3.17;1.10;;;;;;;;;;4904737;29;20082;-80
2024/01/16 01:55:10;;;;;;;2.90;0.68;;;;;;;;;;4889960;29;20077;-79
2024/01/16 01:57:37;;;;;;;3.45;1.20;;;;;;;;;;4906024;29;20031;-79
2024/01/16 02:00:04;;;;;;;9.25;1.23;;;;;;;;;;4906754;29;20135;-78
2024/01/16 02:02:41;;;;;;;10.10;1.17;;;;;;;;;;4905098;29;20127;-78
2024/01/16 02:05:08;;;;;;;5.68;1.30;;;;;;;;;;4887444;29;20032;-78
2024/01/16 02:07:38;;;;;;;6.18;1.00;;;;;;;;;;4904166;29;20123;-77
2024/01/16 02:10:07;;;;;;;2.70;1.02;;;;;;;;;;4889389;29;20036;-79
2024/01/16 02:12:33;;;;;;;1.75;0.90;;;;;;;;;;4873304;29;20039;-78
2024/01/16 02:15:03;;;;;;;2.42;0.95;;;;;;;;;;4888281;29;20032;-79
2024/01/16 02:17:30;;;;;;;3.15;0.98;;;;;;;;;;4888347;29;20159;-78
2024/01/16 02:19:59;;;;;;;4.63;1.00;;;;;;;;;;4903253;29;20583;-78
2024/01/16 02:22:35;;;;;;;5.53;1.17;;;;;;;;;;4888477;29;20153;-79
2024/01/16 02:25:05;;;;;;;;;;;;;;;;;;4873195;29;20040;-78
2024/01/16 02:27:31;;;;;;;4.45;1.70;;;;;;;;;;4888189;29;20376;-79
2024/01/16 02:29:58;;;;;;;4.13;1.27;;;;;;;;;;4888382;29;20044;-78
2024/01/16 02:32:27;;;;;;;5.05;1.25;;;;;;;;;;4887990;29;20046;-77
2024/01/16 02:34:54;;;;;;;2.08;1.00;;;;;;;;;;4887228;29;20056;-79
2024/01/16 02:37:20;;;;;;;4.60;1.42;;;;;;;;;;4886432;29;20016;-77
2024/01/16 02:39:46;;;;;;;6.75;1.92;;;;;;;;;;4867823;29;20045;-79
2024/01/16 02:42:12;;;;;;;2.88;1.20;;;;;;;;;;4867936;29;20033;-79
2024/01/16 02:44:43;;;;;;;6.93;1.85;;;;;;;;;;4883911;29;20033;-78
2024/01/16 02:47:15;;;;;;;6.25;1.20;;;;;;;;;;4887226;29;20048;-78
2024/01/16 02:49:40;;;;;;;3.00;0.70;;;;;;;;;;4886890;29;20416;-78
2024/01/16 02:52:06;;;;;;;3.67;0.90;;;;;;;;;;4887442;29;20157;-79
2024/01/16 02:54:34;;;;;;;2.50;0.70;;;;;;;;;;4886879;29;20028;-78
2024/01/16 02:57:00;;;;;;;6.97;0.95;;;;;;;;;;4903867;29;20373;-79
2024/01/16 02:59:27;;;;;;;4.40;0.90;;;;;;;;;;4856809;29;20499;-78
2024/01/16 03:01:55;;;;;;;3.63;0.93;;;;;;;;;;4887483;29;20037;-79
2024/01/16 03:04:21;;;;;;;4.43;0.85;;;;;;;;;;4871732;29;20096;-78
2024/01/16 03:06:47;;;;;;;1.73;0.70;;;;;;;;;;4887871;29;20072;-78
2024/01/16 03:09:14;;;;;;;1.60;0.70;;;;;;;;;;4903637;29;20037;-77
2024/01/16 03:11:39;;;;;;;1.05;0.57;;;;;;;;;;4887252;29;20061;-77
2024/01/16 03:14:05;;;;;;;2.45;0.77;;;;;;;;;;4886460;29;20048;-78
2024/01/16 03:16:32;;;;;;;2.22;0.60;;;;;;;;;;4887981;29;20040;-78
2024/01/16 03:18:57;;;;;;;1.50;0.57;;;;;;;;;;4871499;29;20035;-79
2024/01/16 03:21:23;;;;;;;4.25;0.85;;;;;;;;;;4884721;29;20108;-77
2024/01/16 03:23:50;;;;;;;3.00;1.00;;;;;;;;;;4901907;29;20453;-78
2024/01/16 03:26:18;;;;;;;2.13;0.70;;;;;;;;;;4882216;29;20051;-78
2024/01/16 03:28:44;;;;;;;2.55;0.98;;;;;;;;;;4904935;29;20096;-78
2024/01/16 03:31:12;;;;;;;3.00;0.52;;;;;;;;;;4874408;29;20437;-77
2024/01/16 03:33:41;;;;;;;2.92;0.82;;;;;;;;;;4890848;29;20036;-78
2024/01/16 03:36:12;;;;;;;3.47;0.82;;;;;;;;;;4891825;29;20036;-78
2024/01/16 03:38:43;;;;;;;1.98;0.88;;;;;;;;;;4904624;29;20028;-80
2024/01/16 03:41:10;;;;;;;3.63;0.57;;;;;;;;;;4906951;29;20037;-78
2024/01/16 03:43:36;;;;;;;10.02;1.05;;;;;;;;;;4922555;29;20033;-79
2024/01/16 03:46:03;;;;;;;2.60;0.95;;;;;;;;;;4906802;29;20017;-79
2024/01/16 03:48:29;;;;;;;3.20;0.85;;;;;;;;;;4906567;29;20069;-78
2024/01/16 03:50:57;;;;;;;7.50;1.13;;;;;;;;;;4906680;29;20033;-78
2024/01/16 03:53:26;;;;;;;;;;;;;;;;;;4898371;29;20043;-78
2024/01/16 03:55:54;;;;;;;3.58;1.25;;;;;;;;;;4890162;29;20399;-78
2024/01/16 03:58:22;;;;;;;6.18;0.90;;;;;;;;;;4892592;29;20417;-77
2024/01/16 04:00:50;;;;;;;3.25;1.27;;;;;;;;;;4877394;29;20043;-78
2024/01/16 04:03:17;;;;;;;4.30;1.52;;;;;;;;;;4890879;29;20021;-78
2024/01/16 04:05:44;;;;;;;3.50;0.82;;;;;;;;;;4871617;29;20496;-77
2024/01/16 04:08:09;;;;;;;5.55;1.25;;;;;;;;;;4889276;29;20092;-78
2024/01/16 04:10:35;;;;;;;9.55;1.08;;;;;;;;;;4904232;29;20030;-79
2024/01/16 04:13:01;;;;;;;6.30;1.10;;;;;;;;;;4887117;29;20093;-78
2024/01/16 04:15:30;;;;;;;7.55;0.90;;;;;;;;;;4889316;29;20049;-78
2024/01/16 04:17:55;;;;;;;2.47;0.98;;;;;;;;;;4873606;29;20041;-79
2024/01/16 04:20:24;;;;;;;5.60;1.02;;;;;;;;;;4894158;29;20041;-78
2024/01/16 04:22:51;;;;;;;4.90;1.58;;;;;;;;;;4906870;29;20032;-78
2024/01/16 04:25:17;;;;;;;8.73;1.40;;;;;;;;;;4906127;29;20045;-78
2024/01/16 04:27:43;;;;;;;5.50;1.45;;;;;;;;;;4875105;29;20119;-78
2024/01/16 04:30:09;;;;;;;4.32;0.90;;;;;;;;;;4904338;29;20060;-78
2024/01/16 04:32:34;;;;;;;3.42;1.13;;;;;;;;;;4889039;29;20103;-78
2024/01/16 04:35:00;;;;;;;7.43;1.55;;;;;;;;;;4873462;29;20050;-78
2024/01/16 04:37:27;;;;;;;8.23;1.10;;;;;;;;;;4880921;29;20039;-79
2024/01/16 04:39:54;;;;;;;5.28;1.17;;;;;;;;;;4881750;29;20429;-79
2024/01/16 04:42:21;;;;;;;8.73;1.30;;;;;;;;;;4910346;29;20048;-79
2024/01/16 04:44:46;;;;;;;4.38;1.30;;;;;;;;;;4893733;29;20039;-79
2024/01/16 04:47:12;;;;;;;8.90;1.50;;;;;;;;;;4878468;29;20543;-79
2024/01/16 04:49:37;;;;;;;3.47;0.98;;;;;;;;;;4889906;29;20029;-78
2024/01/16 04:52:03;;;;;;;7.20;1.20;;;;;;;;;;4891305;29;20032;-79
2024/01/16 04:54:32;;;;;;;4.57;1.48;;;;;;;;;;4887555;29;20036;-80
2024/01/16 04:56:57;;;;;;;5.93;1.50;;;;;;;;;;4885244;29;20417;-79
2024/01/16 04:59:23;;;;;;;6.97;2.00;;;;;;;;;;4901324;29;20044;-79
2024/01/16 05:01:48;;;;;;;5.22;1.88;;;;;;;;;;4872787;29;20033;-79
2024/01/16 05:04:15;;;;;;;7.88;1.70;;;;;;;;;;4887386;29;20036;-79
2024/01/16 05:06:41;;;;;;;5.70;1.98;;;;;;;;;;4872855;29;20399;-79
2024/01/16 05:09:09;;;;;;;9.48;2.05;;;;;;;;;;4905683;29;20044;-79
2024/01/16 05:11:34;;;;;;;8.55;2.03;;;;;;;;;;4886870;29;20045;-77
2024/01/16 05:14:00;;;;;;;6.10;2.40;;;;;;;;;;4872472;29;20039;-79
2024/01/16 05:16:26;;;;;;;8.27;2.55;;;;;;;;;;4904152;29;20118;-79
2024/01/16 05:18:53;;;;;;;5.63;2.55;;;;;;;;;;4889691;29;20040;-78
2024/01/16 05:21:19;;;;;;;9.57;2.20;;;;;;;;;;4888852;29;20500;-79
2024/01/16 05:23:46;;;;;;;7.97;2.95;;;;;;;;;;4893488;29;20033;-79
2024/01/16 05:26:13;;;;;;;4.20;2.40;;;;;;;;;;4867939;29;20048;-79
2024/01/16 05:28:39;;;;;;;6.85;2.38;;;;;;;;;;4885501;29;20041;-78
2024/01/16 05:31:07;;;;;;;7.95;2.25;;;;;;;;;;4885782;29;20048;-79
2024/01/16 05:33:32;;;;;;;8.60;2.50;;;;;;;;;;4884450;29;20497;-79
2024/01/16 05:35:59;;;;;;;5.18;3.10;;;;;;;;;;4883289;29;20036;-79
2024/01/16 05:38:25;;;;;;;9.45;2.70;;;;;;;;;;4899789;29;20049;-79
2024/01/16 05:40:52;;;;;;;9.68;3.70;;;;;;;;;;4888102;29;20503;-78
2024/01/16 05:43:18;;;;;;;7.13;2.75;;;;;;;;;;4880619;29;20044;-78
2024/01/16 05:45:44;;;;;;;7.78;2.28;;;;;;;;;;4906935;29;20060;-78
2024/01/16 05:48:10;;;;;;;9.55;2.80;;;;;;;;;;4887387;29;20413;-79
2024/01/16 05:50:36;;;;;;;4.70;2.10;;;;;;;;;;4883609;29;20172;-77
2024/01/16 05:53:02;;;;;;;3.75;2.08;;;;;;;;;;4878719;29;20040;-78
2024/01/16 05:55:28;;;;;;;9.48;2.50;;;;;;;;;;4909159;29;20075;-78
2024/01/16 05:57:54;;;;;;;5.60;1.88;;;;;;;;;;4898314;29;20044;-78
2024/01/16 06:00:22;;;;;;;14.80;3.50;;;;;;;;;;4885588;29;20065;-79
2024/01/16 06:02:48;;;;;;;9.75;1.90;;;;;;;;;;4884481;29;20033;-78
2024/01/16 06:05:14;;;;;;;7.18;2.13;;;;;;;;;;4903811;29;20021;-78
2024/01/16 06:07:39;;;;;;;10.40;2.75;;;;;;;;;;4901815;29;20116;-77
2024/01/16 06:10:07;;;;;;;8.13;1.77;;;;;;;;;;4900909;29;20095;-80
2024/01/16 06:12:35;;;;;;;5.97;1.92;;;;;;;;;;4885500;29;20511;-79
2024/01/16 06:15:01;;;;;;;8.05;1.92;;;;;;;;;;4901130;29;20029;-79
2024/01/16 06:17:26;;;;;;;9.50;1.77;;;;;;;;;;4869208;29;20032;-79
2024/01/16 06:19:52;;;;;;;7.40;1.67;;;;;;;;;;4868982;29;20488;-77
2024/01/16 06:22:21;;;;;;;5.20;1.80;;;;;;;;;;4870407;29;20049;-77
2024/01/16 06:24:47;;;;;;;5.22;1.50;;;;;;;;;;4884265;29;20098;-79
2024/01/16 06:27:18;;;;;;;6.80;1.90;;;;;;;;;;4900735;29;20044;-79
2024/01/16 06:29:54;;;;;;;7.20;1.88;;;;;;;;;;4887088;29;20072;-79
2024/01/16 06:32:20;;;;;;;8.10;1.95;;;;;;;;;;4898633;29;20024;-80
2024/01/16 06:34:46;;;;;;;4.30;1.88;;;;;;;;;;4918434;29;20040;-79
2024/01/16 06:37:13;;;;;;;10.77;1.65;;;;;;;;;;4905521;29;20057;-78
2024/01/16 06:39:39;;;;;;;7.22;1.70;;;;;;;;;;4922145;29;20017;-78
2024/01/16 06:42:05;;;;;;;6.70;1.52;;;;;;;;;;4906947;29;20346;-79
2024/01/16 06:44:31;;;;;;;5.53;1.48;;;;;;;;;;4875549;29;20025;-79
2024/01/16 06:46:58;;;;;;;9.13;2.38;;;;;;;;;;4890878;29;20032;-79
2024/01/16 06:49:24;;;;;;;5.38;1.60;;;;;;;;;;4871403;29;20064;-78
2024/01/16 06:51:50;;;;;;;6.57;1.88;;;;;;;;;;4884151;29;20040;-79
2024/01/16 06:54:16;;;;;;;5.75;1.60;;;;;;;;;;4880017;29;20035;-80
2024/01/16 06:56:42;;;;;;;6.03;1.98;;;;;;;;;;4880133;29;20033;-78
2024/01/16 06:59:07;;;;;;;7.18;2.28;;;;;;;;;;4880793;29;20032;-80
2024/01/16 07:01:33;;;;;;;7.78;1.73;;;;;;;;;;4898700;29;20239;-79
2024/01/16 07:04:01;;;;;;;6.78;2.03;;;;;;;;;;4871091;29;20473;-80
2024/01/16 07:06:27;;;;;;;7.18;2.28;;;;;;;;;;4988052;23;20052;-84
2024/01/16 07:08:53;;;;;;;10.52;2.17;;;;;;;;;;4920905;29;20099;-83
2024/01/16 07:11:20;;;;;;;7.35;2.55;;;;;;;;;;4902469;29;20043;-83
2024/01/16 07:13:48;;;;;;;9.40;2.83;;;;;;;;;;4914355;29;20032;-83
2024/01/16 07:16:14;;;;;;;8.20;2.60;;;;;;;;;;4914313;29;20051;-83
2024/01/16 07:18:40;;;;;;;6.53;2.30;;;;;;;;;;4914129;29;20040;-83
2024/01/16 07:21:16;;;;;;;9.93;3.17;;;;;;;;;;4929208;29;20028;-83
2024/01/16 07:23:42;;;;;;;14.25;3.00;;;;;;;;;;4921884;29;20046;-83
2024/01/16 07:26:09;;;;;;;12.35;2.78;;;;;;;;;;4918218;29;20052;-83
2024/01/16 07:28:36;;;;;;;10.27;3.05;;;;;;;;;;4902444;29;20040;-84
2024/01/16 07:31:05;;;;;;;8.68;3.05;;;;;;;;;;4925003;29;20032;-82
2024/01/16 07:33:33;;;;;;;11.05;2.78;;;;;;;;;;4920865;29;20004;-83
2024/01/16 07:36:01;;;;;;;5.53;2.50;;;;;;;;;;4921304;29;20048;-83
2024/01/16 07:38:28;;;;;;;7.50;2.40;;;;;;;;;;4922219;29;20052;-83
2024/01/16 07:40:54;;;;;;;6.25;2.33;;;;;;;;;;4904253;29;20045;-83
2024/01/16 07:43:20;;;;;;;5.35;2.10;;;;;;;;;;4900154;29;20067;-83
2024/01/16 07:45:46;;;;;;;9.25;2.20;;;;;;;;;;4898636;29;20040;-83
2024/01/16 07:48:15;;;;;;;8.45;2.22;;;;;;;;;;4914035;29;20039;-82
2024/01/16 07:50:41;;;;;;;8.95;2.08;;;;;;;;;;4905463;29;20440;-83
2024/01/16 07:53:07;;;;;;;6.40;2.20;;;;;;;;;;4886481;29;20034;-83
2024/01/16 07:55:33;;;;;;;11.85;2.53;;;;;;;;;;4914935;29;20333;-84
2024/01/16 07:58:00;;;;;;;5.65;2.25;;;;;;;;;;4907650;29;20035;-83
2024/01/16 08:00:27;;;;;;;5.13;1.65;;;;;;;;;;4904405;29;20031;-83
2024/01/16 08:02:53;;;;;;;6.13;1.52;;;;;;;;;;4936133;29;20032;-83
2024/01/16 08:05:27;;;;;;;9.43;2.05;;;;;;;;;;4901135;29;20044;-83
2024/01/16 08:07:54;;;;;;;15.25;2.85;;;;;;;;;;4917255;29;20111;-83
2024/01/16 08:10:20;;;;;;;6.35;1.90;;;;;;;;;;4914971;29;20031;-83
2024/01/16 08:12:46;;;;;;;7.22;2.10;;;;;;;;;;4911112;29;20116;-83
2024/01/16 08:15:11;;;;;;;8.32;2.08;;;;;;;;;;4892486;29;20091;-83
2024/01/16 08:17:39;;;;;;;3.90;1.80;;;;;;;;;;4908926;29;20107;-83
2024/01/16 08:20:11;;;;;;;6.63;2.05;;;;;;;;;;4895793;29;20132;-83
2024/01/16 08:22:37;;;;;;;7.45;2.28;;;;;;;;;;4896835;29;20042;-82
2024/01/16 08:25:04;;;;;;;9.95;1.80;;;;;;;;;;4908145;29;20110;-82
2024/01/16 08:27:30;;;;;;;9.07;2.22;;;;;;;;;;4890645;29;20059;-83
2024/01/16 08:29:56;;;;;;;9.45;1.77;;;;;;;;;;4898119;29;20064;-83
2024/01/16 08:32:22;;;;;;;9.57;2.00;;;;;;;;;;4911039;29;20034;-83
2024/01/16 08:34:48;;;;;;;6.80;2.30;;;;;;;;;;4896197;29;20039;-83
2024/01/16 08:37:14;;;;;;;6.25;1.67;;;;;;;;;;4915592;29;20038;-83
2024/01/16 08:39:41;;;;;;;6.90;1.85;;;;;;;;;;4899476;29;20541;-83
2024/01/16 08:42:10;;;;;;;9.48;2.22;;;;;;;;;;4902912;29;20036;-83
2024/01/16 08:44:36;;;;;;;3.85;1.75;;;;;;;;;;4901706;29;20032;-83
2024/01/16 08:47:05;;;;;;;;;;;;;;;;;;4895506;29;20047;-83
2024/01/16 08:49:32;;;;;;;7.75;1.90;;;;;;;;;;4904175;29;20298;-83
2024/01/16 08:51:58;;;;;;;5.53;2.10;;;;;;;;;;4903637;29;20035;-82
2024/01/16 08:54:26;;;;;;;12.25;2.58;;;;;;;;;;4931643;29;20032;-83
2024/01/16 08:56:52;;;;;;;6.55;2.28;;;;;;;;;;4896592;29;20411;-83
2024/01/16 08:59:18;;;;;;;6.93;2.10;;;;;;;;;;4898195;29;20035;-83
2024/01/16 09:01:44;;;;;;;11.43;2.45;;;;;;;;;;4902398;29;20059;-83
2024/01/16 09:04:10;;;;;;;7.97;2.10;;;;;;;;;;4915084;29;20307;-83
2024/01/16 09:06:36;;;;;;;6.18;2.60;;;;;;;;;;4901578;29;20122;-83
2024/01/16 09:09:04;;;;;;;5.38;2.28;;;;;;;;;;4934208;29;20036;-83
2024/01/16 09:11:30;;;;;;;13.07;2.33;;;;;;;;;;4900284;29;20031;-83
2024/01/16 09:13:56;;;;;;;8.70;2.75;;;;;;;;;;4899853;29;20302;-83
2024/01/16 09:16:21;;;;;;;8.45;2.53;;;;;;;;;;4915106;29;20028;-83
2024/01/16 09:18:47;;;;;;;10.55;2.40;;;;;;;;;;4918350;29;20048;-83
2024/01/16 09:21:16;;;;;;;8.20;2.28;;;;;;;;;;4917933;29;20079;-83
2024/01/16 09:23:43;;;;;;;8.35;2.78;;;;;;;;;;4918597;29;20040;-83
2024/01/16 09:26:10;;;;;;;4.03;1.60;;;;;;;;;;4920267;29;20031;-83
2024/01/16 09:28:36;;;;;;;5.50;1.88;;;;;;;;;;4902578;29;20066;-83
2024/01/16 09:31:03;;;;;;;8.93;1.90;;;;;;;;;;4916441;29;20124;-82
2024/01/16 09:33:29;;;;;;;5.03;1.80;;;;;;;;;;4904474;29;20034;-83
2024/01/16 09:35:55;;;;;;;6.13;1.95;;;;;;;;;;4905937;29;20091;-82
2024/01/16 09:38:21;;;;;;;8.82;2.00;;;;;;;;;;4923850;29;20024;-83
2024/01/16 09:40:48;;;;;;;8.73;2.38;;;;;;;;;;4910011;29;20031;-83
2024/01/16 09:43:14;;;;;;;6.65;1.67;;;;;;;;;;4927451;29;20039;-82
2024/01/16 09:45:40;;;;;;;7.22;2.00;;;;;;;;;;4913658;29;20027;-83
2024/01/16 09:48:07;;;;;;;9.18;2.08;;;;;;;;;;4908992;29;20035;-82
2024/01/16 09:50:33;;;;;;;6.07;2.00;;;;;;;;;;4912020;29;20043;-83
2024/01/16 09:52:59;;;;;;;4.18;1.98;;;;;;;;;;4911801;29;20039;-83
2024/01/16 09:55:28;;;;;;;9.70;2.60;;;;;;;;;;4911178;29;20032;-83
2024/01/16 09:57:56;;;;;;;7.85;2.17;;;;;;;;;;4896293;29;20035;-82
2024/01/16 10:00:26;;;;;;;6.43;2.30;;;;;;;;;;4910347;29;20058;-82
2024/01/16 10:02:52;;;;;;;13.27;2.40;;;;;;;;;;4910110;29;20059;-83
2024/01/16 10:05:22;;;;;;;9.35;2.60;;;;;;;;;;4910807;29;20028;-83
2024/01/16 10:07:49;;;;;;;10.07;2.20;;;;;;;;;;4909499;29;20090;-82
2024/01/16 10:10:16;;;;;;;9.07;2.20;;;;;;;;;;4925383;29;20036;-83
2024/01/16 10:12:44;;;;;;;6.60;2.50;;;;;;;;;;4911039;29;20031;-83
2024/01/16 10:15:14;;;;;;;10.80;1.88;;;;;;;;;;4913094;29;20076;-82
2024/01/16 10:17:45;;;;;;;6.40;2.10;;;;;;;;;;4917718;29;20038;-83
2024/01/16 10:20:19;;;;;;;9.13;3.05;;;;;;;;;;4917553;29;20050;-82
2024/01/16 10:22:58;;;;;;;8.13;2.58;;;;;;;;;;4921461;29;20035;-82
2024/01/16 10:25:24;;;;;;;;;;;;;;;;;;4922255;29;20055;-83
2024/01/16 10:28:02;;;;;;;6.72;1.90;;;;;;;;;;4922219;29;19977;-83
2024/01/16 10:30:28;;;;;;;5.72;1.90;;;;;;;;;;4925215;29;20190;-83
2024/01/16 10:33:12;;;;;;;9.13;2.20;;;;;;;;;;4937059;29;20042;-83
2024/01/16 10:35:41;;;;;;;8.32;2.20;;;;;;;;;;4900664;29;20042;-82
2024/01/16 10:38:08;;;;;;;4.93;1.83;;;;;;;;;;4915067;29;20039;-82
2024/01/16 10:40:35;;;;;;;6.57;2.00;;;;;;;;;;4929726;29;20262;-82
2024/01/16 10:43:03;;;;;;;4.28;1.70;;;;;;;;;;4910307;28;20032;-83
2024/01/16 10:45:31;;;;;;;7.88;2.20;;;;;;;;;;4915344;29;20023;-83
2024/01/16 10:48:06;;;;;;;6.38;1.90;;;;;;;;;;4921061;29;20082;-82
2024/01/16 10:50:33;;;;;;;5.88;2.42;;;;;;;;;;4915046;29;20507;-82
2024/01/16 10:53:00;;;;;;;4.93;2.00;;;;;;;;;;4929484;29;20038;-82
2024/01/16 10:55:28;;;;;;;8.38;2.30;;;;;;;;;;4929993;29;20034;-83
2024/01/16 10:57:55;;;;;;;5.60;1.77;;;;;;;;;;4916395;29;20031;-83
2024/01/16 11:00:22;;;;;;;5.28;1.92;;;;;;;;;;4933553;29;20054;-83
2024/01/16 11:02:50;;;;;;;4.90;1.75;;;;;;;;;;4916565;29;20135;-82
2024/01/16 11:05:20;;;;;;;6.57;2.20;;;;;;;;;;4799236;28;3803382;-83
2024/01/16 11:07:53;;;;;;;6.38;2.05;;;;;;;;;;4930811;29;20039;-83
2024/01/16 11:10:26;;;;;;;7.70;2.00;;;;;;;;;;4930014;29;20043;-82
2024/01/16 11:12:55;;;;;;;6.18;2.00;;;;;;;;;;4930288;29;20502;-82
2024/01/16 11:15:22;;;;;;;9.82;2.33;;;;;;;;;;4932052;29;20033;-83
2024/01/16 11:17:49;;;;;;;4.00;1.83;;;;;;;;;;4918522;29;20035;-83
2024/01/16 11:20:27;;;;;;;13.02;2.47;;;;;;;;;;4940111;29;20051;-83
2024/01/16 11:22:59;;;;;;;9.48;2.80;;;;;;;;;;4939755;29;20042;-83
2024/01/16 11:25:32;;;;;;;8.30;2.47;;;;;;;;;;4942275;29;20043;-83
2024/01/16 11:28:11;;;;;;;7.90;2.05;;;;;;;;;;4926744;29;20035;-83
2024/01/16 11:30:37;;;;;;;9.02;2.20;;;;;;;;;;4924729;29;20051;-83
2024/01/16 11:33:08;;;;;;;9.18;2.30;;;;;;;;;;4935795;29;20078;-83
2024/01/16 11:35:37;;;;;;;12.55;2.92;;;;;;;;;;4952737;29;20046;-83
2024/01/16 11:38:05;;;;;;;9.68;2.30;;;;;;;;;;4935837;29;20042;-83
2024/01/16 11:41:39;;;;;;;6.43;2.00;;;;;;;;;;4965384;29;20063;-82
2024/01/16 11:44:28;;;;;;;8.25;2.83;;;;;;;;;;4925647;29;20031;-82
2024/01/16 11:50:10;;;;;;;7.85;2.10;;;;;;;;;;4912553;29;20095;-83
2024/01/16 11:52:45;;;;;;;7.40;2.38;;;;;;;;;;4895359;29;20036;-83
2024/01/16 11:55:27;;;;;;;12.55;2.58;;;;;;;;;;4910338;29;20116;-83
2024/01/16 11:58:14;;;;;;;7.78;2.22;;;;;;;;;;4895649;29;20043;-83
2024/01/16 12:01:06;;;;;;;7.65;2.17;;;;;;;;;;4930369;29;20551;-83
2024/01/16 12:03:35;;;;;;;9.65;2.42;;;;;;;;;;4912562;29;20032;-82
2024/01/16 12:06:02;;;;;;;10.63;2.83;;;;;;;;;;4894701;29;20040;-83
2024/01/16 12:08:28;;;;;;;11.57;2.70;;;;;;;;;;4903249;29;20040;-82
2024/01/16 12:10:54;;;;;;;11.75;2.78;;;;;;;;;;4898648;29;20032;-82
2024/01/16 12:13:20;;;;;;;9.25;2.20;;;;;;;;;;4894520;29;20510;-82
2024/01/16 12:15:46;;;;;;;7.10;2.60;;;;;;;;;;4894502;29;20083;-83
2024/01/16 12:18:33;;;;;;;8.88;2.75;;;;;;;;;;4894866;29;20043;-83
2024/01/16 12:25:07;;;;;;;14.55;2.30;;;;;;;;;;4970965;23;20031;-83
2024/01/16 12:27:36;;;;;;;17.75;3.30;;;;;;;;;;4952741;28;20046;-83
2024/01/16 12:30:07;;;;;;;14.52;2.85;;;;;;;;;;4940998;28;20070;-83
2024/01/16 12:32:33;;;;;;;7.82;2.55;;;;;;;;;;4954942;29;20062;-83
2024/01/16 12:34:58;;;;;;;5.85;2.00;;;;;;;;;;4936659;29;20040;-82
2024/01/16 12:37:24;;;;;;;7.03;2.42;;;;;;;;;;4924163;29;20102;-83
2024/01/16 12:39:51;;;;;;;8.88;2.80;;;;;;;;;;4940431;29;20031;-83
2024/01/16 12:42:18;;;;;;;6.25;2.65;;;;;;;;;;4936944;29;20039;-83
2024/01/16 12:44:46;;;;;;;9.82;3.40;;;;;;;;;;4921363;29;20058;-83
2024/01/16 12:47:19;;;;;;;14.68;4.20;;;;;;;;;;4934756;29;20050;-82
2024/01/16 12:49:47;;;;;;;10.73;3.38;;;;;;;;;;4925937;29;20049;-83
2024/01/16 12:52:20;;;;;;;13.00;3.50;;;;;;;;;;4922953;29;20047;-82
2024/01/16 12:54:58;;;;;;;9.00;3.30;;;;;;;;;;4922618;29;20091;-82
2024/01/16 12:57:24;;;;;;;10.52;3.63;;;;;;;;;;4923136;29;20122;-82
2024/01/16 13:00:22;;;;;;;8.40;3.65;;;;;;;;;;4928891;29;20047;-83
2024/01/16 13:02:58;;;;;;;7.78;3.25;;;;;;;;;;4938302;29;20047;-82
2024/01/16 13:11:19;;;;;;;6.40;3.03;;;;;;;;;;5642235;23;20652;-83
2024/01/16 13:13:48;;;;;;;15.10;3.55;;;;;;;;;;4941158;29;20027;-82
2024/01/16 13:16:14;;;;;;;13.30;3.60;;;;;;;;;;4936198;29;20055;-79
2024/01/16 13:18:39;;;;;;;7.50;3.25;;;;;;;;;;4940286;28;20049;-81
2024/01/16 13:21:05;;;;;;;9.50;3.42;;;;;;;;;;4960426;28;20058;-82
2024/01/16 13:23:31;;;;;;;9.90;2.85;;;;;;;;;;4943724;28;20050;-81
2024/01/16 13:26:03;;;;;;;7.72;3.00;;;;;;;;;;4963006;28;20030;-80
2024/01/16 13:28:29;;;;;;;8.65;3.17;;;;;;;;;;4961636;28;20051;-81
2024/01/16 13:30:55;;;;;;;6.57;3.17;;;;;;;;;;4926133;28;20027;-81
2024/01/16 13:33:31;;;;;;;11.40;2.92;;;;;;;;;;4939700;29;20487;-81
2024/01/16 13:35:57;;;;;;;16.42;3.38;;;;;;;;;;4937498;28;20042;-81
2024/01/16 13:38:25;;;;;;;16.17;3.75;;;;;;;;;;4944861;28;20090;-81
2024/01/16 13:40:50;;;;;;;9.38;3.22;;;;;;;;;;4943447;28;20635;-81
2024/01/16 13:43:16;;;;;;;13.43;3.45;;;;;;;;;;4943363;28;20031;-81
2024/01/16 13:45:42;;;;;;;13.55;3.40;;;;;;;;;;4974400;28;20042;-81
2024/01/16 13:48:09;;;;;;;8.82;2.97;;;;;;;;;;4960144;28;20519;-81
2024/01/16 13:50:38;;;;;;;9.45;3.05;;;;;;;;;;4944814;28;20502;-81
2024/01/16 13:53:04;;;;;;;10.15;3.50;;;;;;;;;;4930601;29;20031;-81
2024/01/16 13:55:31;;;;;;;9.82;2.85;;;;;;;;;;4965525;28;20033;-81
2024/01/16 13:57:58;;;;;;;5.85;2.78;;;;;;;;;;4927802;28;20482;-81
2024/01/16 14:00:26;;;;;;;11.95;3.30;;;;;;;;;;4960317;28;20031;-81
2024/01/16 14:02:52;;;;;;;10.40;2.90;;;;;;;;;;4959544;28;20061;-81
2024/01/16 14:05:19;;;;;;;9.82;2.92;;;;;;;;;;4927283;29;20501;-81
2024/01/16 14:07:46;;;;;;;15.13;3.38;;;;;;;;;;4931488;28;20107;-81
2024/01/16 14:10:14;;;;;;;11.35;2.28;;;;;;;;;;4934765;29;20084;-81
2024/01/16 14:12:44;;;;;;;13.23;3.40;;;;;;;;;;4941634;28;20122;-81
2024/01/16 14:15:22;;;;;;;6.82;3.33;;;;;;;;;;4931809;28;20398;-81
2024/01/16 14:17:50;;;;;;;8.70;2.95;;;;;;;;;;4925435;28;20042;-81
2024/01/16 14:20:26;;;;;;;11.88;3.03;;;;;;;;;;4964869;28;20161;-81
2024/01/16 14:22:54;;;;;;;8.60;2.95;;;;;;;;;;4982702;28;20050;-81
2024/01/16 14:25:46;;;;;;;5.88;2.72;;;;;;;;;;4960744;28;20058;-81
2024/01/16 14:28:14;;;;;;;8.77;3.22;;;;;;;;;;4950653;28;20027;-81
2024/01/16 14:30:42;;;;;;;6.82;2.70;;;;;;;;;;4949122;28;20038;-81
2024/01/16 14:33:09;;;;;;;5.75;2.70;;;;;;;;;;4994905;28;20039;-81
2024/01/16 14:35:37;;;;;;;8.23;3.03;;;;;;;;;;4956493;28;20034;-81
2024/01/16 14:38:05;;;;;;;6.82;3.20;;;;;;;;;;4943334;28;20043;-81
2024/01/16 14:40:32;;;;;;;9.85;2.78;;;;;;;;;;4952930;28;20110;-81
2024/01/16 14:43:03;;;;;;;7.20;2.78;;;;;;;;;;4943419;29;20042;-81
2024/01/16 14:45:31;;;;;;;12.80;3.20;;;;;;;;;;4936187;29;20031;-81
2024/01/16 14:48:05;;;;;;;9.63;2.85;;;;;;;;;;4962155;28;20397;-81
2024/01/16 14:50:32;;;;;;;9.80;2.92;;;;;;;;;;4964217;28;20117;-81
2024/01/16 14:52:58;;;;;;;9.38;3.50;;;;;;;;;;4927524;28;20046;-81
2024/01/16 14:55:34;;;;;;;10.75;3.03;;;;;;;;;;4961064;28;20449;-83
2024/01/16 14:58:29;;;;;;;12.27;3.08;;;;;;;;;;4968403;28;20062;-82
2024/01/16 15:00:56;;;;;;;12.02;3.63;;;;;;;;;;4963540;28;20042;-82
2024/01/16 15:03:31;;;;;;;9.20;2.90;;;;;;;;;;4943251;28;20061;-81